createdAt,value
2022-11-27T00:03:23.615Z,5.7
2022-11-27T00:07:56.050Z,5.7
2022-11-27T00:13:36.483Z,5.6
2022-11-27T00:18:08.779Z,5.6
2022-11-27T00:23:25.206Z,5.6
2022-11-27T00:28:55.616Z,5.5
2022-11-27T00:33:37.986Z,5.5
2022-11-27T00:38:44.349Z,5.4
2022-11-27T00:48:57.093Z,5.4
2022-11-27T00:53:53.459Z,5.4
2022-11-27T00:58:59.811Z,5.3
2022-11-27T01:04:30.228Z,5.3
2022-11-27T01:09:22.612Z,5.2
2022-11-27T01:14:28.982Z,5.2
2022-11-27T01:20:39.161Z,5.2
2022-11-27T01:25:29.563Z,5.1
2022-11-27T01:29:41.836Z,5.1
2022-11-27T01:34:58.271Z,5.1
2022-11-27T01:40:04.620Z,5.0
2022-11-27T01:45:11.608Z,5.0
2022-11-27T01:50:16.991Z,5.0
2022-11-27T01:55:24.428Z,5.0
2022-11-27T02:01:15.113Z,4.9
2022-11-27T02:05:27.359Z,4.9
2022-11-27T02:10:33.948Z,4.9
2022-11-27T02:15:53.932Z,4.9
2022-11-27T02:21:00.284Z,4.8
2022-11-27T02:26:06.663Z,4.8
2022-11-27T02:31:13.094Z,4.8
2022-11-27T02:36:19.492Z,4.7
2022-11-27T02:41:25.815Z,4.7
2022-11-27T02:46:32.540Z,4.7
2022-11-27T02:51:28.826Z,4.7
2022-11-27T02:56:35.235Z,4.6
2022-11-27T03:01:51.890Z,4.6
2022-11-27T03:06:48.014Z,4.5
2022-11-27T03:12:04.419Z,4.5
2022-11-27T03:17:11.051Z,4.4
2022-11-27T03:22:17.303Z,4.4
2022-11-27T03:27:23.661Z,4.3
2022-11-27T03:32:30.270Z,4.3
2022-11-27T03:37:36.669Z,4.3
2022-11-27T03:42:43.104Z,4.2
2022-11-27T03:47:51.268Z,4.2
2022-11-27T03:52:57.432Z,4.1
2022-11-27T03:58:04.397Z,4.0
2022-11-27T04:03:10.920Z,4.0
2022-11-27T04:09:01.262Z,4.0
2022-11-27T04:13:23.554Z,3.9
2022-11-27T04:24:00.500Z,3.8
2022-11-27T04:28:42.948Z,3.7
2022-11-27T04:33:50.569Z,3.7
2022-11-27T04:39:23.886Z,3.7
2022-11-27T04:44:03.250Z,3.6
2022-11-27T04:54:29.011Z,3.8
2022-11-27T05:00:36.477Z,3.8
2022-11-27T05:04:42.948Z,3.9
2022-11-27T05:09:49.312Z,3.9
2022-11-27T05:14:55.759Z,3.8
2022-11-27T05:20:02.200Z,3.7
2022-11-27T05:24:58.675Z,3.7
2022-11-27T05:30:14.990Z,3.6
2022-11-27T05:35:11.344Z,3.6
2022-11-27T05:40:27.873Z,3.6
2022-11-27T05:45:33.111Z,3.6
2022-11-27T05:51:46.518Z,3.6
2022-11-27T05:55:46.995Z,3.5
2022-11-27T06:00:43.247Z,3.5
2022-11-27T06:05:49.629Z,3.5
2022-11-27T06:11:06.154Z,3.5
2022-11-27T06:16:12.513Z,3.5
2022-11-27T06:21:18.960Z,3.5
2022-11-27T06:26:25.457Z,3.4
2022-11-27T06:31:31.816Z,3.4
2022-11-27T06:41:44.591Z,3.4
2022-11-27T06:51:57.217Z,3.4
2022-11-27T06:57:24.333Z,3.4
2022-11-27T07:02:14.622Z,3.4
2022-11-27T07:07:17.036Z,3.4
2022-11-27T07:12:23.445Z,3.5
2022-11-27T07:17:43.963Z,3.4
2022-11-27T07:22:25.284Z,3.5
2022-11-27T07:27:42.807Z,3.5
2022-11-27T07:32:39.156Z,3.5
2022-11-27T07:38:15.700Z,3.5
2022-11-27T07:43:01.928Z,3.5
2022-11-27T07:53:38.980Z,3.6
2022-11-27T07:58:21.206Z,3.6
2022-11-27T08:03:29.372Z,3.6
2022-11-27T08:08:35.757Z,3.6
2022-11-27T08:13:42.285Z,3.7
2022-11-27T08:18:48.548Z,3.7
2022-11-27T08:23:54.942Z,3.8
2022-11-27T08:29:01.482Z,3.9
2022-11-27T08:33:57.725Z,4.0
2022-11-27T08:39:14.234Z,4.1
2022-11-27T08:44:34.744Z,4.2
2022-11-27T08:49:16.018Z,4.3
2022-11-27T08:54:23.404Z,4.4
2022-11-27T08:59:43.923Z,4.6
2022-11-27T09:04:35.217Z,4.7
2022-11-27T09:09:52.541Z,4.8
2022-11-27T09:14:59.178Z,4.9
2022-11-27T09:20:05.512Z,4.9
2022-11-27T09:25:12.022Z,5.0
2022-11-27T09:30:22.586Z,5.1
2022-11-27T09:35:24.890Z,5.1
2022-11-27T09:40:35.174Z,5.2
2022-11-27T09:45:37.686Z,5.2
2022-11-27T09:50:33.904Z,5.3
2022-11-27T09:55:50.316Z,5.3
2022-11-27T10:00:56.823Z,5.4
2022-11-27T10:11:09.436Z,5.5
2022-11-27T10:16:16.177Z,5.5
2022-11-27T10:21:22.588Z,5.5
2022-11-27T10:26:18.974Z,5.6
2022-11-27T10:32:03.599Z,5.7
2022-11-27T10:37:16.818Z,5.7
2022-11-27T10:42:24.394Z,5.7
2022-11-27T10:53:15.613Z,5.8
2022-11-27T10:58:11.912Z,5.9
2022-11-27T11:08:24.789Z,5.9
2022-11-27T11:14:01.140Z,6.0
2022-11-27T11:18:47.476Z,6.1
2022-11-27T11:33:56.767Z,6.2
2022-11-27T11:39:13.387Z,6.2
2022-11-27T11:44:08.640Z,6.3
2022-11-27T11:49:16.021Z,6.4
2022-11-27T11:54:32.556Z,6.4
2022-11-27T11:59:43.708Z,6.5
2022-11-27T12:04:47.081Z,6.5
2022-11-27T12:09:53.551Z,6.6
2022-11-27T12:14:59.889Z,6.6
2022-11-27T12:20:34.308Z,6.6
2022-11-27T15:53:14.179Z,7.7
2022-11-27T15:58:21.448Z,7.4
2022-11-27T16:02:21.951Z,7.8
2022-11-27T16:03:26.965Z,7.2
2022-11-27T16:35:54.763Z,7.5
2022-11-27T16:50:01.779Z,7.5
2022-11-27T17:04:00.915Z,6.8
2022-11-27T17:18:55.643Z,6.8
2022-11-27T17:22:31.462Z,6.9
2022-11-27T17:28:49.420Z,6.9
2022-11-27T18:39:54.157Z,7.6
2022-11-27T18:46:01.599Z,7.5
2022-11-27T18:50:29.871Z,7.5
2022-11-27T18:55:34.401Z,7.2
2022-11-27T19:01:52.908Z,7.0
2022-11-27T19:05:27.532Z,6.9
2022-11-27T19:10:33.910Z,6.8
2022-11-27T19:16:24.598Z,6.7
2022-11-27T19:20:36.711Z,6.6
2022-11-27T19:25:53.152Z,6.6
2022-11-27T19:30:59.616Z,6.6
2022-11-27T19:35:56.107Z,6.5
2022-11-27T19:42:55.629Z,6.5
2022-11-27T19:46:18.839Z,6.5
2022-11-27T19:51:25.259Z,6.5
2022-11-27T19:56:31.537Z,6.5
2022-11-27T20:01:27.968Z,6.4
2022-11-27T20:07:37.543Z,6.4
2022-11-27T20:13:08.832Z,6.4
2022-11-27T20:22:47.785Z,6.4
2022-11-27T20:28:04.179Z,6.4
2022-11-27T20:34:43.864Z,6.4
2022-11-27T20:38:18.299Z,6.4
2022-11-27T20:44:24.664Z,6.4
2022-11-27T20:48:50.992Z,6.4
2022-11-27T20:53:37.441Z,6.4
2022-11-27T20:59:03.772Z,6.4
2022-11-27T21:14:02.971Z,6.3
2022-11-27T21:19:24.247Z,6.3
2022-11-27T21:24:16.076Z,6.3
2022-11-27T21:29:22.442Z,6.3
2022-11-27T21:34:28.854Z,6.3
2022-11-27T21:40:47.475Z,6.3
2022-11-27T21:45:01.691Z,6.3
2022-11-27T21:49:48.021Z,6.2
2022-11-27T21:54:54.426Z,6.2
2022-11-27T22:00:04.712Z,6.2
2022-11-27T22:05:11.192Z,6.2
2022-11-27T22:10:17.530Z,6.2
2022-11-27T22:15:24.064Z,6.2
2022-11-27T22:20:54.383Z,6.2
2022-11-27T22:25:36.717Z,6.2
2022-11-27T22:30:43.320Z,6.2
2022-11-27T22:40:45.899Z,6.2
2022-11-27T22:46:02.639Z,6.2
2022-11-27T22:51:08.866Z,6.2
2022-11-27T22:56:17.366Z,6.2
2022-11-27T23:04:02.290Z,6.2
2022-11-27T23:06:29.146Z,6.2
2022-11-27T23:12:28.580Z,6.2
2022-11-27T23:16:42.995Z,6.2
2022-11-27T23:21:49.372Z,6.2
2022-11-27T23:27:23.697Z,6.2
2022-11-27T23:31:52.124Z,6.2
2022-11-27T23:37:07.550Z,6.2
2022-11-27T23:42:13.801Z,6.2
2022-11-27T23:47:21.290Z,6.3
2022-11-27T23:52:17.777Z,6.3
2022-11-27T23:57:34.055Z,6.3
